sensor_id;sensor_type;location;lat;lon;timestamp;temperature;humidity
17333;DHT22;8784;50.94667800;7.08448400;2024-02-14T00:00:06;10.10;99.90
17333;DHT22;8784;50.94667800;7.08448400;2024-02-14T00:02:43;10.00;99.90
17333;DHT22;8784;50.94667800;7.08448400;2024-02-14T00:05:10;10.10;99.90
17333;DHT22;8784;50.94667800;7.08448400;2024-02-14T00:07:37;10.10;99.90
17333;DHT22;8784;50.94667800;7.08448400;2024-02-14T00:10:05;10.10;99.90
17333;DHT22;8784;50.94667800;7.08448400;2024-02-14T00:12:32;10.10;99.90
17333;DHT22;8784;50.94667800;7.08448400;2024-02-14T00:15:01;10.20;99.90
17333;DHT22;8784;50.94667800;7.08448400;2024-02-14T00:17:28;10.20;99.90
17333;DHT22;8784;50.94667800;7.08448400;2024-02-14T00:19:55;10.30;99.90
17333;DHT22;8784;50.94667800;7.08448400;2024-02-14T00:22:22;10.20;99.90
17333;DHT22;8784;50.94667800;7.08448400;2024-02-14T00:24:52;10.20;99.90
17333;DHT22;8784;50.94667800;7.08448400;2024-02-14T00:27:19;10.20;99.90
17333;DHT22;8784;50.94667800;7.08448400;2024-02-14T00:29:49;10.30;99.90
17333;DHT22;8784;50.94667800;7.08448400;2024-02-14T00:32:17;10.30;99.90
17333;DHT22;8784;50.94667800;7.08448400;2024-02-14T00:34:44;10.30;99.90
17333;DHT22;8784;50.94667800;7.08448400;2024-02-14T00:37:11;10.30;99.90
17333;DHT22;8784;50.94667800;7.08448400;2024-02-14T00:39:39;10.20;99.90
17333;DHT22;8784;50.94667800;7.08448400;2024-02-14T00:42:06;10.10;99.90
17333;DHT22;8784;50.94667800;7.08448400;2024-02-14T00:44:33;10.10;99.90
17333;DHT22;8784;50.94667800;7.08448400;2024-02-14T00:47:00;10.20;99.90
17333;DHT22;8784;50.94667800;7.08448400;2024-02-14T00:49:29;10.20;99.90
17333;DHT22;8784;50.94667800;7.08448400;2024-02-14T00:51:57;10.20;99.90
17333;DHT22;8784;50.94667800;7.08448400;2024-02-14T00:54:24;10.30;99.90
17333;DHT22;8784;50.94667800;7.08448400;2024-02-14T00:56:51;10.30;99.90
17333;DHT22;8784;50.94667800;7.08448400;2024-02-14T00:59:17;10.20;99.90
17333;DHT22;8784;50.94667800;7.08448400;2024-02-14T01:01:44;10.30;99.90
17333;DHT22;8784;50.94667800;7.08448400;2024-02-14T01:04:11;10.20;99.90
17333;DHT22;8784;50.94667800;7.08448400;2024-02-14T01:06:40;10.30;99.90
17333;DHT22;8784;50.94667800;7.08448400;2024-02-14T01:09:06;10.30;99.90
17333;DHT22;8784;50.94667800;7.08448400;2024-02-14T01:11:34;10.30;99.90
17333;DHT22;8784;50.94667800;7.08448400;2024-02-14T01:14:01;10.30;99.90
17333;DHT22;8784;50.94667800;7.08448400;2024-02-14T01:16:28;10.30;99.90
17333;DHT22;8784;50.94667800;7.08448400;2024-02-14T01:18:55;10.30;99.90
17333;DHT22;8784;50.94667800;7.08448400;2024-02-14T01:21:22;10.30;99.90
17333;DHT22;8784;50.94667800;7.08448400;2024-02-14T01:23:50;10.30;99.90
17333;DHT22;8784;50.94667800;7.08448400;2024-02-14T01:26:17;10.30;99.90
17333;DHT22;8784;50.94667800;7.08448400;2024-02-14T01:28:46;10.30;99.90
17333;DHT22;8784;50.94667800;7.08448400;2024-02-14T01:31:13;10.30;99.90
17333;DHT22;8784;50.94667800;7.08448400;2024-02-14T01:33:40;10.30;99.90
17333;DHT22;8784;50.94667800;7.08448400;2024-02-14T01:36:07;10.40;99.90
17333;DHT22;8784;50.94667800;7.08448400;2024-02-14T01:38:34;10.40;99.90
17333;DHT22;8784;50.94667800;7.08448400;2024-02-14T01:41:03;10.40;99.90
17333;DHT22;8784;50.94667800;7.08448400;2024-02-14T01:43:30;10.40;99.90
17333;DHT22;8784;50.94667800;7.08448400;2024-02-14T01:46:04;10.50;99.90
17333;DHT22;8784;50.94667800;7.08448400;2024-02-14T01:48:31;10.50;99.90
17333;DHT22;8784;50.94667800;7.08448400;2024-02-14T01:50:59;10.50;99.90
17333;DHT22;8784;50.94667800;7.08448400;2024-02-14T01:53:27;10.50;99.90
17333;DHT22;8784;50.94667800;7.08448400;2024-02-14T01:55:56;10.50;99.90
17333;DHT22;8784;50.94667800;7.08448400;2024-02-14T01:58:24;10.50;99.90
17333;DHT22;8784;50.94667800;7.08448400;2024-02-14T02:00:51;10.50;99.90
17333;DHT22;8784;50.94667800;7.08448400;2024-02-14T02:03:22;10.50;99.90
17333;DHT22;8784;50.94667800;7.08448400;2024-02-14T02:05:49;10.50;99.90
17333;DHT22;8784;50.94667800;7.08448400;2024-02-14T02:08:16;10.50;99.90
17333;DHT22;8784;50.94667800;7.08448400;2024-02-14T02:10:43;10.60;99.90
17333;DHT22;8784;50.94667800;7.08448400;2024-02-14T02:13:10;10.60;99.90
17333;DHT22;8784;50.94667800;7.08448400;2024-02-14T02:15:38;10.50;99.90
17333;DHT22;8784;50.94667800;7.08448400;2024-02-14T02:18:06;10.50;99.90
17333;DHT22;8784;50.94667800;7.08448400;2024-02-14T02:20:33;10.50;99.90
17333;DHT22;8784;50.94667800;7.08448400;2024-02-14T02:23:02;10.50;99.90
17333;DHT22;8784;50.94667800;7.08448400;2024-02-14T02:25:29;10.60;99.90
17333;DHT22;8784;50.94667800;7.08448400;2024-02-14T02:27:56;10.60;99.90
17333;DHT22;8784;50.94667800;7.08448400;2024-02-14T02:30:25;10.60;99.90
17333;DHT22;8784;50.94667800;7.08448400;2024-02-14T02:32:52;10.60;99.90
17333;DHT22;8784;50.94667800;7.08448400;2024-02-14T02:35:19;10.60;99.90
17333;DHT22;8784;50.94667800;7.08448400;2024-02-14T02:37:46;10.60;99.90
17333;DHT22;8784;50.94667800;7.08448400;2024-02-14T02:40:17;10.70;99.90
17333;DHT22;8784;50.94667800;7.08448400;2024-02-14T02:42:46;10.70;99.90
17333;DHT22;8784;50.94667800;7.08448400;2024-02-14T02:45:16;10.70;99.90
17333;DHT22;8784;50.94667800;7.08448400;2024-02-14T02:47:45;10.70;99.90
17333;DHT22;8784;50.94667800;7.08448400;2024-02-14T02:50:16;10.70;99.90
17333;DHT22;8784;50.94667800;7.08448400;2024-02-14T02:52:43;10.70;99.90
17333;DHT22;8784;50.94667800;7.08448400;2024-02-14T02:55:10;10.70;99.90
17333;DHT22;8784;50.94667800;7.08448400;2024-02-14T02:57:39;10.80;99.90
17333;DHT22;8784;50.94667800;7.08448400;2024-02-14T03:00:07;10.70;99.90
17333;DHT22;8784;50.94667800;7.08448400;2024-02-14T03:02:35;10.70;99.90
17333;DHT22;8784;50.94667800;7.08448400;2024-02-14T03:05:04;10.80;99.90
17333;DHT22;8784;50.94667800;7.08448400;2024-02-14T03:07:32;10.80;99.90
17333;DHT22;8784;50.94667800;7.08448400;2024-02-14T03:09:59;10.70;99.90
17333;DHT22;8784;50.94667800;7.08448400;2024-02-14T03:12:26;10.80;99.90
17333;DHT22;8784;50.94667800;7.08448400;2024-02-14T03:15:03;10.80;99.90
17333;DHT22;8784;50.94667800;7.08448400;2024-02-14T03:17:35;10.80;99.90
17333;DHT22;8784;50.94667800;7.08448400;2024-02-14T03:20:08;10.80;99.90
17333;DHT22;8784;50.94667800;7.08448400;2024-02-14T03:22:38;10.80;99.90
17333;DHT22;8784;50.94667800;7.08448400;2024-02-14T03:25:12;10.80;99.90
17333;DHT22;8784;50.94667800;7.08448400;2024-02-14T03:27:40;10.90;99.90
17333;DHT22;8784;50.94667800;7.08448400;2024-02-14T03:30:09;10.90;99.90
17333;DHT22;8784;50.94667800;7.08448400;2024-02-14T03:32:36;10.90;99.90
17333;DHT22;8784;50.94667800;7.08448400;2024-02-14T03:35:03;10.90;99.90
17333;DHT22;8784;50.94667800;7.08448400;2024-02-14T03:37:31;10.90;99.90
17333;DHT22;8784;50.94667800;7.08448400;2024-02-14T03:39:59;10.80;99.90
17333;DHT22;8784;50.94667800;7.08448400;2024-02-14T03:42:26;10.80;99.90
17333;DHT22;8784;50.94667800;7.08448400;2024-02-14T03:44:52;10.80;99.90
17333;DHT22;8784;50.94667800;7.08448400;2024-02-14T03:47:27;10.80;99.90
17333;DHT22;8784;50.94667800;7.08448400;2024-02-14T03:49:57;10.80;99.90
17333;DHT22;8784;50.94667800;7.08448400;2024-02-14T03:52:24;10.70;99.90
17333;DHT22;8784;50.94667800;7.08448400;2024-02-14T03:54:52;10.80;99.90
17333;DHT22;8784;50.94667800;7.08448400;2024-02-14T03:57:19;10.80;99.90
17333;DHT22;8784;50.94667800;7.08448400;2024-02-14T03:59:46;10.80;99.90
17333;DHT22;8784;50.94667800;7.08448400;2024-02-14T04:02:13;10.80;99.90
17333;DHT22;8784;50.94667800;7.08448400;2024-02-14T04:04:42;10.80;99.90
17333;DHT22;8784;50.94667800;7.08448400;2024-02-14T04:07:10;10.80;99.90
17333;DHT22;8784;50.94667800;7.08448400;2024-02-14T04:09:37;10.80;99.90
17333;DHT22;8784;50.94667800;7.08448400;2024-02-14T04:12:04;10.80;99.90
17333;DHT22;8784;50.94667800;7.08448400;2024-02-14T04:14:32;10.80;99.90
17333;DHT22;8784;50.94667800;7.08448400;2024-02-14T04:16:59;10.80;99.90
17333;DHT22;8784;50.94667800;7.08448400;2024-02-14T04:19:26;10.80;99.90
17333;DHT22;8784;50.94667800;7.08448400;2024-02-14T04:21:55;10.80;99.90
17333;DHT22;8784;50.94667800;7.08448400;2024-02-14T04:24:22;10.80;99.90
17333;DHT22;8784;50.94667800;7.08448400;2024-02-14T04:26:49;10.80;99.90
17333;DHT22;8784;50.94667800;7.08448400;2024-02-14T04:29:16;10.80;99.90
17333;DHT22;8784;50.94667800;7.08448400;2024-02-14T04:31:42;10.80;99.90
17333;DHT22;8784;50.94667800;7.08448400;2024-02-14T04:34:09;10.80;99.90
17333;DHT22;8784;50.94667800;7.08448400;2024-02-14T04:36:40;10.80;99.90
17333;DHT22;8784;50.94667800;7.08448400;2024-02-14T04:39:08;10.70;99.90
17333;DHT22;8784;50.94667800;7.08448400;2024-02-14T04:41:35;10.70;99.90
17333;DHT22;8784;50.94667800;7.08448400;2024-02-14T04:44:03;10.70;99.90
17333;DHT22;8784;50.94667800;7.08448400;2024-02-14T04:46:34;10.80;99.90
17333;DHT22;8784;50.94667800;7.08448400;2024-02-14T04:49:01;10.80;99.90
17333;DHT22;8784;50.94667800;7.08448400;2024-02-14T04:51:29;10.80;99.90
17333;DHT22;8784;50.94667800;7.08448400;2024-02-14T04:53:56;10.80;99.90
17333;DHT22;8784;50.94667800;7.08448400;2024-02-14T04:56:26;10.90;99.90
17333;DHT22;8784;50.94667800;7.08448400;2024-02-14T04:58:53;10.80;99.90
17333;DHT22;8784;50.94667800;7.08448400;2024-02-14T05:01:20;10.90;99.90
17333;DHT22;8784;50.94667800;7.08448400;2024-02-14T05:03:48;10.90;99.90
17333;DHT22;8784;50.94667800;7.08448400;2024-02-14T05:06:15;10.90;99.90
17333;DHT22;8784;50.94667800;7.08448400;2024-02-14T05:08:42;10.90;99.90
17333;DHT22;8784;50.94667800;7.08448400;2024-02-14T05:11:09;10.90;99.90
17333;DHT22;8784;50.94667800;7.08448400;2024-02-14T05:13:37;10.90;99.90
17333;DHT22;8784;50.94667800;7.08448400;2024-02-14T05:16:07;10.90;99.90
17333;DHT22;8784;50.94667800;7.08448400;2024-02-14T05:18:36;10.90;99.90
17333;DHT22;8784;50.94667800;7.08448400;2024-02-14T05:21:05;10.90;99.90
17333;DHT22;8784;50.94667800;7.08448400;2024-02-14T05:23:32;10.90;99.90
17333;DHT22;8784;50.94667800;7.08448400;2024-02-14T05:25:59;10.90;99.90
17333;DHT22;8784;50.94667800;7.08448400;2024-02-14T05:28:27;10.90;99.90
17333;DHT22;8784;50.94667800;7.08448400;2024-02-14T05:30:56;11.00;99.90
17333;DHT22;8784;50.94667800;7.08448400;2024-02-14T05:33:23;11.00;99.90
17333;DHT22;8784;50.94667800;7.08448400;2024-02-14T05:35:50;11.00;99.90
17333;DHT22;8784;50.94667800;7.08448400;2024-02-14T05:38:17;11.00;99.90
17333;DHT22;8784;50.94667800;7.08448400;2024-02-14T05:40:45;11.00;99.90
17333;DHT22;8784;50.94667800;7.08448400;2024-02-14T05:43:12;11.00;99.90
17333;DHT22;8784;50.94667800;7.08448400;2024-02-14T05:45:39;11.00;99.90
17333;DHT22;8784;50.94667800;7.08448400;2024-02-14T05:48:08;11.00;99.90
17333;DHT22;8784;50.94667800;7.08448400;2024-02-14T05:50:35;11.00;99.90
17333;DHT22;8784;50.94667800;7.08448400;2024-02-14T05:53:02;11.00;99.90
17333;DHT22;8784;50.94667800;7.08448400;2024-02-14T05:55:29;11.10;99.90
17333;DHT22;8784;50.94667800;7.08448400;2024-02-14T05:57:56;11.00;99.90
17333;DHT22;8784;50.94667800;7.08448400;2024-02-14T06:00:25;10.70;99.90
17333;DHT22;8784;50.94667800;7.08448400;2024-02-14T06:02:52;10.60;99.90
17333;DHT22;8784;50.94667800;7.08448400;2024-02-14T06:05:20;10.40;99.90
17333;DHT22;8784;50.94667800;7.08448400;2024-02-14T06:07:47;10.40;99.90
17333;DHT22;8784;50.94667800;7.08448400;2024-02-14T06:10:14;10.40;99.90
17333;DHT22;8784;50.94667800;7.08448400;2024-02-14T06:12:41;10.40;99.90
17333;DHT22;8784;50.94667800;7.08448400;2024-02-14T06:15:09;10.30;99.90
17333;DHT22;8784;50.94667800;7.08448400;2024-02-14T06:17:36;10.40;99.90
17333;DHT22;8784;50.94667800;7.08448400;2024-02-14T06:20:05;10.40;99.90
17333;DHT22;8784;50.94667800;7.08448400;2024-02-14T06:22:34;10.40;99.90
17333;DHT22;8784;50.94667800;7.08448400;2024-02-14T06:25:01;10.40;99.90
17333;DHT22;8784;50.94667800;7.08448400;2024-02-14T06:27:30;10.40;99.90
17333;DHT22;8784;50.94667800;7.08448400;2024-02-14T06:29:58;10.30;99.90
17333;DHT22;8784;50.94667800;7.08448400;2024-02-14T06:32:26;10.40;99.90
17333;DHT22;8784;50.94667800;7.08448400;2024-02-14T06:34:53;10.50;99.90
17333;DHT22;8784;50.94667800;7.08448400;2024-02-14T06:37:20;10.60;99.90
17333;DHT22;8784;50.94667800;7.08448400;2024-02-14T06:39:48;10.70;99.90
17333;DHT22;8784;50.94667800;7.08448400;2024-02-14T06:42:15;10.70;99.90
17333;DHT22;8784;50.94667800;7.08448400;2024-02-14T06:44:42;10.80;99.90
17333;DHT22;8784;50.94667800;7.08448400;2024-02-14T06:47:09;10.90;99.90
17333;DHT22;8784;50.94667800;7.08448400;2024-02-14T06:49:36;10.90;99.90
17333;DHT22;8784;50.94667800;7.08448400;2024-02-14T06:52:04;10.90;99.90
17333;DHT22;8784;50.94667800;7.08448400;2024-02-14T06:54:31;11.00;99.90
17333;DHT22;8784;50.94667800;7.08448400;2024-02-14T06:56:59;11.00;99.90
17333;DHT22;8784;50.94667800;7.08448400;2024-02-14T06:59:26;11.00;99.90
17333;DHT22;8784;50.94667800;7.08448400;2024-02-14T07:01:53;11.00;99.90
17333;DHT22;8784;50.94667800;7.08448400;2024-02-14T07:04:21;11.00;99.90
17333;DHT22;8784;50.94667800;7.08448400;2024-02-14T07:06:51;11.00;99.90
17333;DHT22;8784;50.94667800;7.08448400;2024-02-14T07:09:18;11.00;99.90
17333;DHT22;8784;50.94667800;7.08448400;2024-02-14T07:11:45;11.10;99.90
17333;DHT22;8784;50.94667800;7.08448400;2024-02-14T07:14:13;11.10;99.90
17333;DHT22;8784;50.94667800;7.08448400;2024-02-14T07:16:40;11.10;99.90
17333;DHT22;8784;50.94667800;7.08448400;2024-02-14T07:19:08;11.10;99.90
17333;DHT22;8784;50.94667800;7.08448400;2024-02-14T07:21:35;11.10;99.90
17333;DHT22;8784;50.94667800;7.08448400;2024-02-14T07:24:04;11.20;99.90
17333;DHT22;8784;50.94667800;7.08448400;2024-02-14T07:26:31;11.20;99.90
17333;DHT22;8784;50.94667800;7.08448400;2024-02-14T07:28:58;11.30;99.90
17333;DHT22;8784;50.94667800;7.08448400;2024-02-14T07:31:30;11.30;99.90
17333;DHT22;8784;50.94667800;7.08448400;2024-02-14T07:33:59;11.30;99.90
17333;DHT22;8784;50.94667800;7.08448400;2024-02-14T07:36:26;11.30;99.90
17333;DHT22;8784;50.94667800;7.08448400;2024-02-14T07:38:53;11.30;99.90
17333;DHT22;8784;50.94667800;7.08448400;2024-02-14T07:41:20;11.40;99.90
17333;DHT22;8784;50.94667800;7.08448400;2024-02-14T07:43:47;11.40;99.90
17333;DHT22;8784;50.94667800;7.08448400;2024-02-14T07:46:17;11.40;99.90
17333;DHT22;8784;50.94667800;7.08448400;2024-02-14T07:48:46;11.40;99.90
17333;DHT22;8784;50.94667800;7.08448400;2024-02-14T07:51:14;11.50;99.90
17333;DHT22;8784;50.94667800;7.08448400;2024-02-14T07:53:42;11.50;99.90
17333;DHT22;8784;50.94667800;7.08448400;2024-02-14T07:56:09;11.60;99.90
17333;DHT22;8784;50.94667800;7.08448400;2024-02-14T07:58:36;11.60;99.90
17333;DHT22;8784;50.94667800;7.08448400;2024-02-14T08:01:04;11.60;99.90
17333;DHT22;8784;50.94667800;7.08448400;2024-02-14T08:03:35;11.60;99.90
17333;DHT22;8784;50.94667800;7.08448400;2024-02-14T08:06:04;11.60;99.90
17333;DHT22;8784;50.94667800;7.08448400;2024-02-14T08:08:31;11.60;99.90
17333;DHT22;8784;50.94667800;7.08448400;2024-02-14T08:10:59;11.70;99.90
17333;DHT22;8784;50.94667800;7.08448400;2024-02-14T08:13:27;11.70;99.90
17333;DHT22;8784;50.94667800;7.08448400;2024-02-14T08:15:55;11.80;99.90
17333;DHT22;8784;50.94667800;7.08448400;2024-02-14T08:18:22;11.80;99.90
17333;DHT22;8784;50.94667800;7.08448400;2024-02-14T08:20:49;11.90;99.90
17333;DHT22;8784;50.94667800;7.08448400;2024-02-14T08:23:19;11.90;99.90
17333;DHT22;8784;50.94667800;7.08448400;2024-02-14T08:25:46;12.00;99.90
17333;DHT22;8784;50.94667800;7.08448400;2024-02-14T08:28:14;12.10;99.90
17333;DHT22;8784;50.94667800;7.08448400;2024-02-14T08:30:43;12.20;99.90
17333;DHT22;8784;50.94667800;7.08448400;2024-02-14T08:33:11;12.20;99.90
17333;DHT22;8784;50.94667800;7.08448400;2024-02-14T08:35:38;12.20;99.90
17333;DHT22;8784;50.94667800;7.08448400;2024-02-14T08:38:06;12.20;99.90
17333;DHT22;8784;50.94667800;7.08448400;2024-02-14T08:40:35;12.20;99.90
17333;DHT22;8784;50.94667800;7.08448400;2024-02-14T08:43:02;12.20;99.90
17333;DHT22;8784;50.94667800;7.08448400;2024-02-14T08:45:30;12.30;99.90
17333;DHT22;8784;50.94667800;7.08448400;2024-02-14T08:47:57;12.30;99.90
17333;DHT22;8784;50.94667800;7.08448400;2024-02-14T08:50:25;12.30;99.90
17333;DHT22;8784;50.94667800;7.08448400;2024-02-14T08:52:52;12.40;99.90
17333;DHT22;8784;50.94667800;7.08448400;2024-02-14T08:55:19;12.40;99.90
17333;DHT22;8784;50.94667800;7.08448400;2024-02-14T08:57:48;12.40;99.90
17333;DHT22;8784;50.94667800;7.08448400;2024-02-14T09:00:16;12.40;99.90
17333;DHT22;8784;50.94667800;7.08448400;2024-02-14T09:02:45;12.50;99.90
17333;DHT22;8784;50.94667800;7.08448400;2024-02-14T09:05:13;12.50;99.90
17333;DHT22;8784;50.94667800;7.08448400;2024-02-14T09:07:42;12.60;99.90
17333;DHT22;8784;50.94667800;7.08448400;2024-02-14T09:10:10;12.60;99.90
17333;DHT22;8784;50.94667800;7.08448400;2024-02-14T09:12:38;12.60;99.90
17333;DHT22;8784;50.94667800;7.08448400;2024-02-14T09:15:08;12.60;99.90
17333;DHT22;8784;50.94667800;7.08448400;2024-02-14T09:17:37;12.70;99.90
17333;DHT22;8784;50.94667800;7.08448400;2024-02-14T09:20:07;12.80;99.90
17333;DHT22;8784;50.94667800;7.08448400;2024-02-14T09:22:35;13.00;99.90
17333;DHT22;8784;50.94667800;7.08448400;2024-02-14T09:25:04;13.20;99.90
17333;DHT22;8784;50.94667800;7.08448400;2024-02-14T09:27:31;13.50;99.90
17333;DHT22;8784;50.94667800;7.08448400;2024-02-14T09:30:01;13.60;99.90
17333;DHT22;8784;50.94667800;7.08448400;2024-02-14T09:32:30;13.70;99.90
17333;DHT22;8784;50.94667800;7.08448400;2024-02-14T09:34:58;13.90;99.90
17333;DHT22;8784;50.94667800;7.08448400;2024-02-14T09:37:26;14.00;99.90
17333;DHT22;8784;50.94667800;7.08448400;2024-02-14T09:39:54;14.10;99.90
17333;DHT22;8784;50.94667800;7.08448400;2024-02-14T09:42:28;14.20;99.90
17333;DHT22;8784;50.94667800;7.08448400;2024-02-14T09:44:59;14.30;99.90
17333;DHT22;8784;50.94667800;7.08448400;2024-02-14T09:47:28;14.40;99.90
17333;DHT22;8784;50.94667800;7.08448400;2024-02-14T09:49:59;14.40;99.90
17333;DHT22;8784;50.94667800;7.08448400;2024-02-14T09:52:34;14.40;99.90
17333;DHT22;8784;50.94667800;7.08448400;2024-02-14T09:55:02;14.50;99.90
17333;DHT22;8784;50.94667800;7.08448400;2024-02-14T09:57:31;14.50;99.90
17333;DHT22;8784;50.94667800;7.08448400;2024-02-14T10:00:00;14.50;99.90
17333;DHT22;8784;50.94667800;7.08448400;2024-02-14T10:02:30;14.50;99.90
17333;DHT22;8784;50.94667800;7.08448400;2024-02-14T10:04:58;14.40;99.90
17333;DHT22;8784;50.94667800;7.08448400;2024-02-14T10:07:26;14.40;99.90
17333;DHT22;8784;50.94667800;7.08448400;2024-02-14T10:09:53;14.50;99.90
17333;DHT22;8784;50.94667800;7.08448400;2024-02-14T10:12:20;14.40;99.90
17333;DHT22;8784;50.94667800;7.08448400;2024-02-14T10:14:48;14.40;99.90
17333;DHT22;8784;50.94667800;7.08448400;2024-02-14T10:17:18;14.40;99.90
17333;DHT22;8784;50.94667800;7.08448400;2024-02-14T10:19:56;14.40;99.90
17333;DHT22;8784;50.94667800;7.08448400;2024-02-14T10:22:25;14.30;99.90
17333;DHT22;8784;50.94667800;7.08448400;2024-02-14T10:24:53;14.30;99.90
17333;DHT22;8784;50.94667800;7.08448400;2024-02-14T10:27:21;14.30;99.90
17333;DHT22;8784;50.94667800;7.08448400;2024-02-14T10:29:48;14.20;99.90
17333;DHT22;8784;50.94667800;7.08448400;2024-02-14T10:32:18;14.10;99.90
17333;DHT22;8784;50.94667800;7.08448400;2024-02-14T10:34:46;14.00;99.90
17333;DHT22;8784;50.94667800;7.08448400;2024-02-14T10:37:14;14.00;99.90
17333;DHT22;8784;50.94667800;7.08448400;2024-02-14T10:39:45;13.90;99.90
17333;DHT22;8784;50.94667800;7.08448400;2024-02-14T10:42:14;13.90;99.90
17333;DHT22;8784;50.94667800;7.08448400;2024-02-14T10:44:41;13.90;99.90
17333;DHT22;8784;50.94667800;7.08448400;2024-02-14T10:47:11;13.80;99.90
17333;DHT22;8784;50.94667800;7.08448400;2024-02-14T10:49:40;13.90;99.90
17333;DHT22;8784;50.94667800;7.08448400;2024-02-14T10:52:10;13.90;99.90
17333;DHT22;8784;50.94667800;7.08448400;2024-02-14T10:54:38;13.90;99.90
17333;DHT22;8784;50.94667800;7.08448400;2024-02-14T10:57:09;14.10;99.90
17333;DHT22;8784;50.94667800;7.08448400;2024-02-14T10:59:38;14.20;99.90
17333;DHT22;8784;50.94667800;7.08448400;2024-02-14T11:02:08;14.30;99.90
17333;DHT22;8784;50.94667800;7.08448400;2024-02-14T11:04:36;14.30;99.90
17333;DHT22;8784;50.94667800;7.08448400;2024-02-14T11:07:09;14.40;99.90
17333;DHT22;8784;50.94667800;7.08448400;2024-02-14T11:09:37;14.50;99.90
17333;DHT22;8784;50.94667800;7.08448400;2024-02-14T11:12:08;14.60;99.90
17333;DHT22;8784;50.94667800;7.08448400;2024-02-14T11:14:37;14.70;99.90
17333;DHT22;8784;50.94667800;7.08448400;2024-02-14T11:17:09;14.80;99.90
17333;DHT22;8784;50.94667800;7.08448400;2024-02-14T11:19:36;14.80;99.90
17333;DHT22;8784;50.94667800;7.08448400;2024-02-14T11:22:11;14.80;99.90
17333;DHT22;8784;50.94667800;7.08448400;2024-02-14T11:24:39;14.80;99.90
17333;DHT22;8784;50.94667800;7.08448400;2024-02-14T11:27:11;14.90;99.90
17333;DHT22;8784;50.94667800;7.08448400;2024-02-14T11:29:39;15.00;99.90
17333;DHT22;8784;50.94667800;7.08448400;2024-02-14T11:32:08;15.00;99.90
17333;DHT22;8784;50.94667800;7.08448400;2024-02-14T11:34:53;15.00;99.90
17333;DHT22;8784;50.94667800;7.08448400;2024-02-14T11:37:26;14.90;99.90
17333;DHT22;8784;50.94667800;7.08448400;2024-02-14T11:39:54;15.00;99.90
17333;DHT22;8784;50.94667800;7.08448400;2024-02-14T11:42:24;15.00;99.90
17333;DHT22;8784;50.94667800;7.08448400;2024-02-14T11:44:51;14.90;99.90
17333;DHT22;8784;50.94667800;7.08448400;2024-02-14T11:47:23;14.80;99.90
17333;DHT22;8784;50.94667800;7.08448400;2024-02-14T11:49:50;14.90;99.90
17333;DHT22;8784;50.94667800;7.08448400;2024-02-14T11:52:18;14.90;99.90
17333;DHT22;8784;50.94667800;7.08448400;2024-02-14T11:54:46;14.90;99.90
17333;DHT22;8784;50.94667800;7.08448400;2024-02-14T11:57:17;14.90;99.90
17333;DHT22;8784;50.94667800;7.08448400;2024-02-14T11:59:49;14.90;99.90
17333;DHT22;8784;50.94667800;7.08448400;2024-02-14T12:02:18;14.90;99.90
17333;DHT22;8784;50.94667800;7.08448400;2024-02-14T12:04:47;14.80;99.90
17333;DHT22;8784;50.94667800;7.08448400;2024-02-14T12:07:16;14.80;99.90
17333;DHT22;8784;50.94667800;7.08448400;2024-02-14T12:09:44;14.70;99.90
17333;DHT22;8784;50.94667800;7.08448400;2024-02-14T12:12:11;14.70;99.90
17333;DHT22;8784;50.94667800;7.08448400;2024-02-14T12:14:40;14.70;99.90
17333;DHT22;8784;50.94667800;7.08448400;2024-02-14T12:17:11;14.70;99.90
17333;DHT22;8784;50.94667800;7.08448400;2024-02-14T12:19:38;14.70;99.90
17333;DHT22;8784;50.94667800;7.08448400;2024-02-14T12:22:10;14.70;99.90
17333;DHT22;8784;50.94667800;7.08448400;2024-02-14T12:24:43;14.70;99.90
17333;DHT22;8784;50.94667800;7.08448400;2024-02-14T12:27:10;14.70;99.90
17333;DHT22;8784;50.94667800;7.08448400;2024-02-14T12:29:38;14.70;99.90
17333;DHT22;8784;50.94667800;7.08448400;2024-02-14T12:32:06;14.70;99.90
17333;DHT22;8784;50.94667800;7.08448400;2024-02-14T12:34:34;14.60;99.90
17333;DHT22;8784;50.94667800;7.08448400;2024-02-14T12:37:03;14.70;99.90
17333;DHT22;8784;50.94667800;7.08448400;2024-02-14T12:39:31;14.50;99.90
17333;DHT22;8784;50.94667800;7.08448400;2024-02-14T12:41:58;14.60;99.90
17333;DHT22;8784;50.94667800;7.08448400;2024-02-14T12:44:28;14.60;99.90
17333;DHT22;8784;50.94667800;7.08448400;2024-02-14T12:46:55;14.60;99.90
17333;DHT22;8784;50.94667800;7.08448400;2024-02-14T12:49:22;14.60;99.90
17333;DHT22;8784;50.94667800;7.08448400;2024-02-14T12:51:53;14.70;99.90
17333;DHT22;8784;50.94667800;7.08448400;2024-02-14T12:54:22;14.80;99.90
17333;DHT22;8784;50.94667800;7.08448400;2024-02-14T12:56:51;14.80;99.90
17333;DHT22;8784;50.94667800;7.08448400;2024-02-14T12:59:18;14.70;99.90
17333;DHT22;8784;50.94667800;7.08448400;2024-02-14T13:01:46;14.70;99.90
17333;DHT22;8784;50.94667800;7.08448400;2024-02-14T13:04:16;14.70;99.90
17333;DHT22;8784;50.94667800;7.08448400;2024-02-14T13:06:43;14.80;99.90
17333;DHT22;8784;50.94667800;7.08448400;2024-02-14T13:09:14;14.70;99.90
17333;DHT22;8784;50.94667800;7.08448400;2024-02-14T13:11:42;14.70;99.90
17333;DHT22;8784;50.94667800;7.08448400;2024-02-14T13:14:09;14.70;99.90
17333;DHT22;8784;50.94667800;7.08448400;2024-02-14T13:16:42;14.60;99.90
17333;DHT22;8784;50.94667800;7.08448400;2024-02-14T13:19:09;14.60;99.90
17333;DHT22;8784;50.94667800;7.08448400;2024-02-14T13:21:38;14.60;99.90
17333;DHT22;8784;50.94667800;7.08448400;2024-02-14T13:24:07;14.70;99.90
17333;DHT22;8784;50.94667800;7.08448400;2024-02-14T13:26:36;14.70;99.90
17333;DHT22;8784;50.94667800;7.08448400;2024-02-14T13:29:04;14.70;99.90
17333;DHT22;8784;50.94667800;7.08448400;2024-02-14T13:31:31;14.70;99.90
17333;DHT22;8784;50.94667800;7.08448400;2024-02-14T13:33:58;14.60;99.90
17333;DHT22;8784;50.94667800;7.08448400;2024-02-14T13:36:30;14.60;99.90
17333;DHT22;8784;50.94667800;7.08448400;2024-02-14T13:38:57;14.60;99.90